Villa Carlos Paz, Argentina
Current Conditions -  °F | °C
As of 1:00 PM on Wednesday 26 Nov 2014 (Local Time) from SACO Reporting Station
Few Clouds Few Clouds  
Wind Chill: 79°   Ceiling: Unl
Heat Index: 79°   Visibility: 6mi
Dew Point: 55°   Wind: 10mph
Humidity: 44%   Direction: 90°E
Pressure: 30.03"   Gusts: NA
Location:  31.42°S, 64.5°W
Report Text: SACO 261600Z 09009KT 9999 FEW030FEW040CB 26/13 Q1017
Loading
Personal Weather Stations






























Interactive Weather Map New forecast layout! Learn more

10-Day Weather Forecast

Advertisements
Track Severe Weather on mobile